sensor_id;sensor_type;location;lat;lon;timestamp;P1;durP1;ratioP1;P2;durP2;ratioP2
40471;SDS011;26174;42.908;23.800;2023-02-28T00:00:30;0.35;;;0.35;;
40471;SDS011;26174;42.908;23.800;2023-02-28T00:02:56;5.38;;;1.52;;
40471;SDS011;26174;42.908;23.800;2023-02-28T00:05:41;1.65;;;1.55;;
40471;SDS011;26174;42.908;23.800;2023-02-28T00:11:28;2.30;;;1.90;;
40471;SDS011;26174;42.908;23.800;2023-02-28T00:14:08;1.38;;;1.27;;
40471;SDS011;26174;42.908;23.800;2023-02-28T00:17:40;3.30;;;1.85;;
40471;SDS011;26174;42.908;23.800;2023-02-28T00:22:44;1.05;;;0.95;;
40471;SDS011;26174;42.908;23.800;2023-02-28T00:25:11;3.30;;;1.48;;
40471;SDS011;26174;42.908;23.800;2023-02-28T00:27:40;0.20;;;0.20;;
40471;SDS011;26174;42.908;23.800;2023-02-28T00:30:06;1.27;;;1.17;;
40471;SDS011;26174;42.908;23.800;2023-02-28T00:32:34;0.52;;;0.52;;
40471;SDS011;26174;42.908;23.800;2023-02-28T00:35:00;3.08;;;2.53;;
40471;SDS011;26174;42.908;23.800;2023-02-28T00:37:26;3.15;;;1.15;;
40471;SDS011;26174;42.908;23.800;2023-02-28T00:39:52;2.75;;;0.70;;
40471;SDS011;26174;42.908;23.800;2023-02-28T00:42:17;3.53;;;1.83;;
40471;SDS011;26174;42.908;23.800;2023-02-28T00:44:43;1.58;;;1.48;;
40471;SDS011;26174;42.908;23.800;2023-02-28T00:47:08;2.05;;;0.93;;
40471;SDS011;26174;42.908;23.800;2023-02-28T00:49:34;1.13;;;1.05;;
40471;SDS011;26174;42.908;23.800;2023-02-28T00:51:59;3.45;;;1.13;;
40471;SDS011;26174;42.908;23.800;2023-02-28T00:54:25;1.08;;;1.05;;
40471;SDS011;26174;42.908;23.800;2023-02-28T00:56:50;6.82;;;2.83;;
40471;SDS011;26174;42.908;23.800;2023-02-28T00:59:16;0.93;;;0.93;;
40471;SDS011;26174;42.908;23.800;2023-02-28T01:01:43;1.90;;;1.73;;
40471;SDS011;26174;42.908;23.800;2023-02-28T01:04:09;5.72;;;2.08;;
40471;SDS011;26174;42.908;23.800;2023-02-28T01:06:35;2.20;;;1.55;;
40471;SDS011;26174;42.908;23.800;2023-02-28T01:09:01;2.05;;;1.63;;
40471;SDS011;26174;42.908;23.800;2023-02-28T01:11:28;1.83;;;1.73;;
40471;SDS011;26174;42.908;23.800;2023-02-28T01:13:53;1.73;;;1.48;;
40471;SDS011;26174;42.908;23.800;2023-02-28T01:16:19;0.73;;;0.73;;
40471;SDS011;26174;42.908;23.800;2023-02-28T01:18:44;4.68;;;1.30;;
40471;SDS011;26174;42.908;23.800;2023-02-28T01:21:15;5.95;;;2.33;;
40471;SDS011;26174;42.908;23.800;2023-02-28T01:23:41;2.65;;;1.65;;
40471;SDS011;26174;42.908;23.800;2023-02-28T01:26:07;1.10;;;1.02;;
40471;SDS011;26174;42.908;23.800;2023-02-28T01:28:34;0.82;;;0.82;;
40471;SDS011;26174;42.908;23.800;2023-02-28T01:31:00;1.23;;;1.13;;
40471;SDS011;26174;42.908;23.800;2023-02-28T01:33:26;0.55;;;0.50;;
40471;SDS011;26174;42.908;23.800;2023-02-28T01:36:25;2.05;;;1.30;;
40471;SDS011;26174;42.908;23.800;2023-02-28T01:41:13;1.52;;;1.00;;
40471;SDS011;26174;42.908;23.800;2023-02-28T01:46:07;0.75;;;0.75;;
40471;SDS011;26174;42.908;23.800;2023-02-28T01:48:33;1.55;;;1.45;;
40471;SDS011;26174;42.908;23.800;2023-02-28T01:51:03;1.00;;;0.90;;
40471;SDS011;26174;42.908;23.800;2023-02-28T01:53:32;2.28;;;1.15;;
40471;SDS011;26174;42.908;23.800;2023-02-28T01:56:01;1.60;;;1.50;;
40471;SDS011;26174;42.908;23.800;2023-02-28T01:58:29;0.57;;;0.57;;
40471;SDS011;26174;42.908;23.800;2023-02-28T02:00:54;2.70;;;1.60;;
40471;SDS011;26174;42.908;23.800;2023-02-28T02:03:20;6.03;;;1.95;;
40471;SDS011;26174;42.908;23.800;2023-02-28T02:05:46;2.65;;;0.95;;
40471;SDS011;26174;42.908;23.800;2023-02-28T02:29:24;2.88;;;1.20;;
40471;SDS011;26174;42.908;23.800;2023-02-28T02:32:20;1.08;;;1.05;;
40471;SDS011;26174;42.908;23.800;2023-02-28T02:40:19;2.40;;;1.85;;
40471;SDS011;26174;42.908;23.800;2023-02-28T02:43:04;3.00;;;1.45;;
40471;SDS011;26174;42.908;23.800;2023-02-28T02:45:46;1.17;;;1.10;;
40471;SDS011;26174;42.908;23.800;2023-02-28T02:48:17;3.20;;;1.58;;
40471;SDS011;26174;42.908;23.800;2023-02-28T02:51:06;3.85;;;2.20;;
40471;SDS011;26174;42.908;23.800;2023-02-28T02:53:37;3.88;;;1.10;;
40471;SDS011;26174;42.908;23.800;2023-02-28T02:56:06;3.00;;;1.58;;
40471;SDS011;26174;42.908;23.800;2023-02-28T02:58:33;2.60;;;2.08;;
40471;SDS011;26174;42.908;23.800;2023-02-28T03:01:07;3.63;;;1.10;;
40471;SDS011;26174;42.908;23.800;2023-02-28T03:03:34;5.47;;;1.52;;
40471;SDS011;26174;42.908;23.800;2023-02-28T03:06:00;2.22;;;1.67;;
40471;SDS011;26174;42.908;23.800;2023-02-28T03:08:28;26.88;;;13.10;;
40471;SDS011;26174;42.908;23.800;2023-02-28T03:10:58;25.77;;;12.88;;
40471;SDS011;26174;42.908;23.800;2023-02-28T03:13:37;26.63;;;13.48;;
40471;SDS011;26174;42.908;23.800;2023-02-28T03:21:36;28.05;;;13.68;;
40471;SDS011;26174;42.908;23.800;2023-02-28T03:24:18;29.08;;;13.45;;
40471;SDS011;26174;42.908;23.800;2023-02-28T03:26:50;27.83;;;12.95;;
40471;SDS011;26174;42.908;23.800;2023-02-28T03:29:42;25.60;;;11.45;;
40471;SDS011;26174;42.908;23.800;2023-02-28T03:32:13;26.80;;;12.35;;
40471;SDS011;26174;42.908;23.800;2023-02-28T03:37:53;29.35;;;11.98;;
40471;SDS011;26174;42.908;23.800;2023-02-28T03:40:25;23.30;;;11.80;;
40471;SDS011;26174;42.908;23.800;2023-02-28T03:43:07;28.35;;;12.70;;
40471;SDS011;26174;42.908;23.800;2023-02-28T03:45:36;27.05;;;12.20;;
40471;SDS011;26174;42.908;23.800;2023-02-28T03:48:26;24.65;;;11.10;;
40471;SDS011;26174;42.908;23.800;2023-02-28T03:50:54;28.00;;;12.95;;
40471;SDS011;26174;42.908;23.800;2023-02-28T03:55:49;21.65;;;10.88;;
40471;SDS011;26174;42.908;23.800;2023-02-28T03:58:35;27.25;;;12.18;;
40471;SDS011;26174;42.908;23.800;2023-02-28T04:01:16;26.00;;;11.98;;
40471;SDS011;26174;42.908;23.800;2023-02-28T04:03:47;30.35;;;12.05;;
40471;SDS011;26174;42.908;23.800;2023-02-28T04:06:14;32.85;;;12.90;;
40471;SDS011;26174;42.908;23.800;2023-02-28T04:08:42;32.38;;;13.43;;
40471;SDS011;26174;42.908;23.800;2023-02-28T04:11:12;31.15;;;13.48;;
40471;SDS011;26174;42.908;23.800;2023-02-28T04:13:47;34.80;;;13.07;;
40471;SDS011;26174;42.908;23.800;2023-02-28T04:16:13;28.13;;;12.75;;
40471;SDS011;26174;42.908;23.800;2023-02-28T04:18:39;31.88;;;13.35;;
40471;SDS011;26174;42.908;23.800;2023-02-28T04:21:05;36.33;;;14.23;;
40471;SDS011;26174;42.908;23.800;2023-02-28T04:23:31;31.05;;;13.10;;
40471;SDS011;26174;42.908;23.800;2023-02-28T04:25:57;28.80;;;13.07;;
40471;SDS011;26174;42.908;23.800;2023-02-28T04:28:23;55.33;;;23.35;;
40471;SDS011;26174;42.908;23.800;2023-02-28T04:30:54;58.50;;;20.25;;
40471;SDS011;26174;42.908;23.800;2023-02-28T04:33:26;40.40;;;17.83;;
40471;SDS011;26174;42.908;23.800;2023-02-28T04:35:58;34.13;;;13.77;;
40471;SDS011;26174;42.908;23.800;2023-02-28T04:38:38;30.17;;;13.20;;
40471;SDS011;26174;42.908;23.800;2023-02-28T04:41:04;28.70;;;13.13;;
40471;SDS011;26174;42.908;23.800;2023-02-28T04:43:30;31.52;;;13.57;;
40471;SDS011;26174;42.908;23.800;2023-02-28T04:45:56;28.55;;;13.32;;
40471;SDS011;26174;42.908;23.800;2023-02-28T04:48:26;33.00;;;14.23;;
40471;SDS011;26174;42.908;23.800;2023-02-28T04:50:53;35.75;;;16.23;;
40471;SDS011;26174;42.908;23.800;2023-02-28T04:53:19;29.38;;;14.00;;
40471;SDS011;26174;42.908;23.800;2023-02-28T04:55:45;32.25;;;13.88;;
40471;SDS011;26174;42.908;23.800;2023-02-28T04:58:11;35.03;;;14.48;;
40471;SDS011;26174;42.908;23.800;2023-02-28T05:00:37;31.38;;;13.93;;
40471;SDS011;26174;42.908;23.800;2023-02-28T05:03:03;34.92;;;14.82;;
40471;SDS011;26174;42.908;23.800;2023-02-28T05:05:28;34.72;;;14.32;;
40471;SDS011;26174;42.908;23.800;2023-02-28T05:07:54;35.47;;;16.00;;
40471;SDS011;26174;42.908;23.800;2023-02-28T05:10:21;36.83;;;15.90;;
40471;SDS011;26174;42.908;23.800;2023-02-28T05:12:47;31.38;;;14.10;;
40471;SDS011;26174;42.908;23.800;2023-02-28T05:15:13;32.88;;;14.32;;
40471;SDS011;26174;42.908;23.800;2023-02-28T05:17:40;31.08;;;13.95;;
40471;SDS011;26174;42.908;23.800;2023-02-28T05:20:06;31.27;;;12.27;;
40471;SDS011;26174;42.908;23.800;2023-02-28T05:22:33;31.83;;;12.85;;
40471;SDS011;26174;42.908;23.800;2023-02-28T05:24:59;32.63;;;13.05;;
40471;SDS011;26174;42.908;23.800;2023-02-28T05:27:24;36.28;;;14.05;;
40471;SDS011;26174;42.908;23.800;2023-02-28T05:29:50;32.83;;;13.75;;
40471;SDS011;26174;42.908;23.800;2023-02-28T05:32:16;32.95;;;14.15;;
40471;SDS011;26174;42.908;23.800;2023-02-28T05:34:41;39.58;;;14.95;;
40471;SDS011;26174;42.908;23.800;2023-02-28T05:37:10;39.97;;;17.40;;
40471;SDS011;26174;42.908;23.800;2023-02-28T05:39:37;34.97;;;15.57;;
40471;SDS011;26174;42.908;23.800;2023-02-28T05:42:03;33.25;;;15.73;;
40471;SDS011;26174;42.908;23.800;2023-02-28T05:44:28;36.17;;;15.73;;
40471;SDS011;26174;42.908;23.800;2023-02-28T05:46:54;48.38;;;19.02;;
40471;SDS011;26174;42.908;23.800;2023-02-28T05:49:19;45.00;;;20.45;;
40471;SDS011;26174;42.908;23.800;2023-02-28T05:51:45;44.25;;;17.95;;
40471;SDS011;26174;42.908;23.800;2023-02-28T05:54:10;38.72;;;15.63;;
40471;SDS011;26174;42.908;23.800;2023-02-28T05:56:36;36.33;;;15.45;;
40471;SDS011;26174;42.908;23.800;2023-02-28T05:59:05;36.08;;;15.07;;
40471;SDS011;26174;42.908;23.800;2023-02-28T06:04:00;36.63;;;16.48;;
40471;SDS011;26174;42.908;23.800;2023-02-28T06:06:27;36.00;;;15.07;;
40471;SDS011;26174;42.908;23.800;2023-02-28T06:08:52;39.95;;;15.75;;
40471;SDS011;26174;42.908;23.800;2023-02-28T06:11:19;42.20;;;16.95;;
40471;SDS011;26174;42.908;23.800;2023-02-28T06:13:45;36.50;;;15.65;;
40471;SDS011;26174;42.908;23.800;2023-02-28T06:16:11;34.55;;;14.98;;
40471;SDS011;26174;42.908;23.800;2023-02-28T06:18:37;39.70;;;18.17;;
40471;SDS011;26174;42.908;23.800;2023-02-28T06:21:03;44.00;;;17.25;;
40471;SDS011;26174;42.908;23.800;2023-02-28T06:23:33;37.83;;;15.50;;
40471;SDS011;26174;42.908;23.800;2023-02-28T06:25:59;33.83;;;14.38;;
40471;SDS011;26174;42.908;23.800;2023-02-28T06:28:25;35.42;;;15.45;;
40471;SDS011;26174;42.908;23.800;2023-02-28T06:30:51;35.65;;;16.05;;
40471;SDS011;26174;42.908;23.800;2023-02-28T06:33:16;34.33;;;15.27;;
40471;SDS011;26174;42.908;23.800;2023-02-28T06:35:46;36.22;;;15.70;;
40471;SDS011;26174;42.908;23.800;2023-02-28T06:38:13;33.72;;;14.27;;
40471;SDS011;26174;42.908;23.800;2023-02-28T06:40:38;29.48;;;13.13;;
40471;SDS011;26174;42.908;23.800;2023-02-28T06:43:04;32.88;;;13.95;;
40471;SDS011;26174;42.908;23.800;2023-02-28T06:45:29;32.40;;;13.73;;
40471;SDS011;26174;42.908;23.800;2023-02-28T06:47:55;36.60;;;14.10;;
40471;SDS011;26174;42.908;23.800;2023-02-28T06:50:20;32.55;;;13.07;;
40471;SDS011;26174;42.908;23.800;2023-02-28T06:52:46;35.25;;;15.70;;
40471;SDS011;26174;42.908;23.800;2023-02-28T06:55:12;34.10;;;13.40;;
40471;SDS011;26174;42.908;23.800;2023-02-28T06:57:38;36.33;;;16.30;;
40471;SDS011;26174;42.908;23.800;2023-02-28T07:00:05;45.80;;;15.70;;
40471;SDS011;26174;42.908;23.800;2023-02-28T07:02:33;40.92;;;15.63;;
40471;SDS011;26174;42.908;23.800;2023-02-28T07:04:59;58.63;;;21.55;;
40471;SDS011;26174;42.908;23.800;2023-02-28T07:07:25;71.50;;;23.63;;
40471;SDS011;26174;42.908;23.800;2023-02-28T07:09:50;44.30;;;17.88;;
40471;SDS011;26174;42.908;23.800;2023-02-28T07:12:16;40.90;;;17.80;;
40471;SDS011;26174;42.908;23.800;2023-02-28T07:14:41;42.85;;;18.08;;
40471;SDS011;26174;42.908;23.800;2023-02-28T07:17:07;38.50;;;15.93;;
40471;SDS011;26174;42.908;23.800;2023-02-28T07:19:33;41.13;;;16.67;;
40471;SDS011;26174;42.908;23.800;2023-02-28T07:21:59;34.00;;;14.77;;
40471;SDS011;26174;42.908;23.800;2023-02-28T07:24:25;48.33;;;18.05;;
40471;SDS011;26174;42.908;23.800;2023-02-28T07:26:53;34.05;;;15.38;;
40471;SDS011;26174;42.908;23.800;2023-02-28T07:29:18;48.03;;;18.92;;
40471;SDS011;26174;42.908;23.800;2023-02-28T07:31:44;67.15;;;20.23;;
40471;SDS011;26174;42.908;23.800;2023-02-28T07:34:13;38.22;;;13.02;;
40471;SDS011;26174;42.908;23.800;2023-02-28T07:36:40;31.45;;;14.20;;
40471;SDS011;26174;42.908;23.800;2023-02-28T07:39:05;52.47;;;15.63;;
40471;SDS011;26174;42.908;23.800;2023-02-28T07:41:31;54.67;;;13.55;;
40471;SDS011;26174;42.908;23.800;2023-02-28T07:43:59;35.25;;;13.60;;
40471;SDS011;26174;42.908;23.800;2023-02-28T07:46:25;38.65;;;14.43;;
40471;SDS011;26174;42.908;23.800;2023-02-28T07:48:51;36.22;;;15.43;;
40471;SDS011;26174;42.908;23.800;2023-02-28T07:51:18;32.38;;;14.00;;
40471;SDS011;26174;42.908;23.800;2023-02-28T07:53:44;39.30;;;16.88;;
40471;SDS011;26174;42.908;23.800;2023-02-28T07:56:09;42.65;;;15.32;;
40471;SDS011;26174;42.908;23.800;2023-02-28T07:58:36;36.78;;;14.63;;
40471;SDS011;26174;42.908;23.800;2023-02-28T08:01:08;37.20;;;16.35;;
40471;SDS011;26174;42.908;23.800;2023-02-28T08:03:35;37.95;;;15.30;;
40471;SDS011;26174;42.908;23.800;2023-02-28T08:06:02;37.97;;;17.60;;
40471;SDS011;26174;42.908;23.800;2023-02-28T08:08:29;46.67;;;16.80;;
40471;SDS011;26174;42.908;23.800;2023-02-28T08:11:00;37.63;;;16.10;;
40471;SDS011;26174;42.908;23.800;2023-02-28T08:13:27;35.05;;;15.00;;
40471;SDS011;26174;42.908;23.800;2023-02-28T08:15:54;34.35;;;14.65;;
40471;SDS011;26174;42.908;23.800;2023-02-28T08:18:20;30.15;;;13.32;;
40471;SDS011;26174;42.908;23.800;2023-02-28T08:20:46;35.10;;;14.38;;
40471;SDS011;26174;42.908;23.800;2023-02-28T08:23:11;34.33;;;14.68;;
40471;SDS011;26174;42.908;23.800;2023-02-28T08:25:37;26.75;;;11.68;;
40471;SDS011;26174;42.908;23.800;2023-02-28T08:28:02;29.38;;;13.40;;
40471;SDS011;26174;42.908;23.800;2023-02-28T08:30:28;28.42;;;12.52;;
40471;SDS011;26174;42.908;23.800;2023-02-28T08:32:53;28.77;;;12.52;;
40471;SDS011;26174;42.908;23.800;2023-02-28T08:35:20;33.42;;;12.88;;
40471;SDS011;26174;42.908;23.800;2023-02-28T08:37:47;31.10;;;12.05;;
40471;SDS011;26174;42.908;23.800;2023-02-28T08:40:13;38.58;;;14.93;;
40471;SDS011;26174;42.908;23.800;2023-02-28T08:42:44;38.50;;;16.10;;
40471;SDS011;26174;42.908;23.800;2023-02-28T08:45:10;40.63;;;16.98;;
40471;SDS011;26174;42.908;23.800;2023-02-28T08:47:36;54.17;;;16.80;;
40471;SDS011;26174;42.908;23.800;2023-02-28T08:50:01;39.13;;;14.77;;
40471;SDS011;26174;42.908;23.800;2023-02-28T08:52:27;32.70;;;14.82;;
40471;SDS011;26174;42.908;23.800;2023-02-28T08:54:53;38.75;;;13.73;;
40471;SDS011;26174;42.908;23.800;2023-02-28T08:57:18;48.72;;;14.63;;
40471;SDS011;26174;42.908;23.800;2023-02-28T08:59:44;24.60;;;11.02;;
40471;SDS011;26174;42.908;23.800;2023-02-28T09:02:12;27.10;;;11.32;;
40471;SDS011;26174;42.908;23.800;2023-02-28T09:04:38;38.35;;;14.25;;
40471;SDS011;26174;42.908;23.800;2023-02-28T09:07:03;24.92;;;11.52;;
40471;SDS011;26174;42.908;23.800;2023-02-28T09:09:29;33.83;;;10.95;;
40471;SDS011;26174;42.908;23.800;2023-02-28T09:11:55;23.25;;;9.90;;
40471;SDS011;26174;42.908;23.800;2023-02-28T09:14:21;24.70;;;10.27;;
40471;SDS011;26174;42.908;23.800;2023-02-28T09:16:46;28.73;;;12.50;;
40471;SDS011;26174;42.908;23.800;2023-02-28T09:19:12;25.13;;;11.85;;
40471;SDS011;26174;42.908;23.800;2023-02-28T09:21:38;31.77;;;11.98;;
40471;SDS011;26174;42.908;23.800;2023-02-28T09:24:04;29.98;;;11.77;;
40471;SDS011;26174;42.908;23.800;2023-02-28T09:26:29;26.83;;;13.93;;
40471;SDS011;26174;42.908;23.800;2023-02-28T09:28:55;28.48;;;11.15;;
40471;SDS011;26174;42.908;23.800;2023-02-28T09:31:21;26.80;;;10.32;;
40471;SDS011;26174;42.908;23.800;2023-02-28T09:33:48;32.03;;;13.85;;
40471;SDS011;26174;42.908;23.800;2023-02-28T09:36:15;43.42;;;18.52;;
40471;SDS011;26174;42.908;23.800;2023-02-28T09:38:40;28.50;;;13.27;;
40471;SDS011;26174;42.908;23.800;2023-02-28T09:41:16;27.38;;;11.30;;
40471;SDS011;26174;42.908;23.800;2023-02-28T09:43:45;23.15;;;10.65;;
40471;SDS011;26174;42.908;23.800;2023-02-28T09:46:27;29.73;;;11.30;;
40471;SDS011;26174;42.908;23.800;2023-02-28T09:48:53;21.20;;;10.07;;
40471;SDS011;26174;42.908;23.800;2023-02-28T09:51:36;16.10;;;7.75;;
40471;SDS011;26174;42.908;23.800;2023-02-28T09:54:21;22.52;;;9.18;;
40471;SDS011;26174;42.908;23.800;2023-02-28T09:56:53;23.80;;;8.57;;
40471;SDS011;26174;42.908;23.800;2023-02-28T10:05:11;18.90;;;8.00;;
40471;SDS011;26174;42.908;23.800;2023-02-28T10:10:26;15.70;;;7.60;;
40471;SDS011;26174;42.908;23.800;2023-02-28T10:12:56;15.13;;;6.78;;
40471;SDS011;26174;42.908;23.800;2023-02-28T10:15:25;16.80;;;6.57;;
40471;SDS011;26174;42.908;23.800;2023-02-28T10:17:54;17.25;;;7.05;;
40471;SDS011;26174;42.908;23.800;2023-02-28T10:20:23;17.48;;;6.20;;
40471;SDS011;26174;42.908;23.800;2023-02-28T10:25:45;14.93;;;5.50;;
40471;SDS011;26174;42.908;23.800;2023-02-28T10:28:15;16.05;;;5.97;;
40471;SDS011;26174;42.908;23.800;2023-02-28T10:30:52;10.93;;;5.47;;
40471;SDS011;26174;42.908;23.800;2023-02-28T10:33:22;15.23;;;5.82;;
40471;SDS011;26174;42.908;23.800;2023-02-28T10:36:02;13.63;;;6.75;;
40471;SDS011;26174;42.908;23.800;2023-02-28T10:38:33;20.02;;;7.22;;
40471;SDS011;26174;42.908;23.800;2023-02-28T10:41:10;20.55;;;9.85;;
40471;SDS011;26174;42.908;23.800;2023-02-28T10:43:38;21.60;;;10.43;;
40471;SDS011;26174;42.908;23.800;2023-02-28T10:48:37;38.58;;;14.23;;
40471;SDS011;26174;42.908;23.800;2023-02-28T10:51:04;32.08;;;14.70;;
40471;SDS011;26174;42.908;23.800;2023-02-28T11:01:19;13.48;;;6.05;;
40471;SDS011;26174;42.908;23.800;2023-02-28T11:04:32;18.90;;;8.95;;
40471;SDS011;26174;42.908;23.800;2023-02-28T11:06:58;15.07;;;5.90;;
40471;SDS011;26174;42.908;23.800;2023-02-28T11:09:27;13.35;;;6.80;;
40471;SDS011;26174;42.908;23.800;2023-02-28T11:11:54;12.73;;;6.00;;
40471;SDS011;26174;42.908;23.800;2023-02-28T11:14:20;20.48;;;8.25;;
40471;SDS011;26174;42.908;23.800;2023-02-28T11:16:48;14.88;;;8.30;;
40471;SDS011;26174;42.908;23.800;2023-02-28T11:19:17;17.77;;;8.75;;
40471;SDS011;26174;42.908;23.800;2023-02-28T11:21:52;19.08;;;9.43;;
40471;SDS011;26174;42.908;23.800;2023-02-28T11:24:37;22.10;;;8.98;;
40471;SDS011;26174;42.908;23.800;2023-02-28T11:27:23;23.40;;;10.10;;
40471;SDS011;26174;42.908;23.800;2023-02-28T11:29:50;14.80;;;7.80;;
40471;SDS011;26174;42.908;23.800;2023-02-28T11:32:20;15.45;;;7.75;;
40471;SDS011;26174;42.908;23.800;2023-02-28T11:37:37;18.15;;;8.93;;
40471;SDS011;26174;42.908;23.800;2023-02-28T11:40:05;17.92;;;8.05;;
40471;SDS011;26174;42.908;23.800;2023-02-28T11:42:42;20.98;;;9.52;;
40471;SDS011;26174;42.908;23.800;2023-02-28T11:45:52;26.25;;;11.35;;
40471;SDS011;26174;42.908;23.800;2023-02-28T11:48:32;21.65;;;10.68;;
40471;SDS011;26174;42.908;23.800;2023-02-28T11:57:00;24.92;;;10.02;;
40471;SDS011;26174;42.908;23.800;2023-02-28T12:10:53;20.38;;;9.95;;
40471;SDS011;26174;42.908;23.800;2023-02-28T12:13:35;16.35;;;8.55;;
40471;SDS011;26174;42.908;23.800;2023-02-28T12:19:07;20.13;;;10.55;;
40471;SDS011;26174;42.908;23.800;2023-02-28T12:27:13;16.75;;;8.68;;
40471;SDS011;26174;42.908;23.800;2023-02-28T12:29:45;19.58;;;9.98;;
40471;SDS011;26174;42.908;23.800;2023-02-28T12:32:20;19.55;;;10.57;;
40471;SDS011;26174;42.908;23.800;2023-02-28T12:34:51;24.30;;;10.07;;
40471;SDS011;26174;42.908;23.800;2023-02-28T12:37:35;17.13;;;9.75;;
40471;SDS011;26174;42.908;23.800;2023-02-28T12:40:05;22.42;;;10.70;;
40471;SDS011;26174;42.908;23.800;2023-02-28T12:42:38;27.02;;;10.82;;
40471;SDS011;26174;42.908;23.800;2023-02-28T12:45:18;19.60;;;9.77;;
40471;SDS011;26174;42.908;23.800;2023-02-28T12:47:46;17.80;;;9.35;;
40471;SDS011;26174;42.908;23.800;2023-02-28T12:50:15;16.02;;;7.90;;
40471;SDS011;26174;42.908;23.800;2023-02-28T12:55:32;18.52;;;9.60;;
40471;SDS011;26174;42.908;23.800;2023-02-28T12:58:14;14.52;;;7.47;;
40471;SDS011;26174;42.908;23.800;2023-02-28T13:00:48;14.50;;;8.00;;
40471;SDS011;26174;42.908;23.800;2023-02-28T13:03:28;20.23;;;9.68;;
40471;SDS011;26174;42.908;23.800;2023-02-28T13:08:47;16.67;;;8.65;;
40471;SDS011;26174;42.908;23.800;2023-02-28T13:11:41;21.70;;;11.23;;
40471;SDS011;26174;42.908;23.800;2023-02-28T13:19:37;15.20;;;8.30;;
40471;SDS011;26174;42.908;23.800;2023-02-28T13:24:49;15.68;;;8.32;;
40471;SDS011;26174;42.908;23.800;2023-02-28T13:27:38;19.55;;;8.93;;
40471;SDS011;26174;42.908;23.800;2023-02-28T13:38:54;19.45;;;8.88;;
40471;SDS011;26174;42.908;23.800;2023-02-28T13:46:31;18.35;;;9.60;;
40471;SDS011;26174;42.908;23.800;2023-02-28T13:51:46;19.27;;;9.25;;
40471;SDS011;26174;42.908;23.800;2023-02-28T13:55:00;15.73;;;8.43;;
40471;SDS011;26174;42.908;23.800;2023-02-28T14:05:18;15.23;;;8.27;;
40471;SDS011;26174;42.908;23.800;2023-02-28T14:07:50;22.63;;;10.23;;
40471;SDS011;26174;42.908;23.800;2023-02-28T14:10:28;15.30;;;8.27;;
40471;SDS011;26174;42.908;23.800;2023-02-28T14:13:00;12.23;;;7.53;;
40471;SDS011;26174;42.908;23.800;2023-02-28T14:18:28;15.25;;;8.88;;
40471;SDS011;26174;42.908;23.800;2023-02-28T14:20:56;24.20;;;10.48;;
40471;SDS011;26174;42.908;23.800;2023-02-28T14:23:30;20.30;;;10.25;;
40471;SDS011;26174;42.908;23.800;2023-02-28T14:26:11;20.67;;;10.70;;
40471;SDS011;26174;42.908;23.800;2023-02-28T14:31:12;19.67;;;10.60;;
40471;SDS011;26174;42.908;23.800;2023-02-28T14:36:13;17.75;;;9.27;;
40471;SDS011;26174;42.908;23.800;2023-02-28T14:38:52;18.20;;;9.95;;
40471;SDS011;26174;42.908;23.800;2023-02-28T14:43:52;13.45;;;7.70;;
40471;SDS011;26174;42.908;23.800;2023-02-28T14:46:19;18.70;;;9.40;;
40471;SDS011;26174;42.908;23.800;2023-02-28T14:48:46;16.65;;;8.40;;
40471;SDS011;26174;42.908;23.800;2023-02-28T14:51:17;22.75;;;10.23;;
40471;SDS011;26174;42.908;23.800;2023-02-28T14:53:44;20.53;;;8.30;;
40471;SDS011;26174;42.908;23.800;2023-02-28T14:59:32;13.20;;;7.13;;
40471;SDS011;26174;42.908;23.800;2023-02-28T15:05:00;16.75;;;9.48;;
40471;SDS011;26174;42.908;23.800;2023-02-28T15:07:35;23.83;;;10.98;;
40471;SDS011;26174;42.908;23.800;2023-02-28T15:12:32;23.87;;;11.97;;
40471;SDS011;26174;42.908;23.800;2023-02-28T15:14:58;22.73;;;10.88;;
40471;SDS011;26174;42.908;23.800;2023-02-28T15:17:23;28.48;;;13.98;;
40471;SDS011;26174;42.908;23.800;2023-02-28T15:19:50;20.88;;;11.10;;
40471;SDS011;26174;42.908;23.800;2023-02-28T15:22:26;19.88;;;10.30;;
40471;SDS011;26174;42.908;23.800;2023-02-28T15:24:55;22.85;;;11.15;;
40471;SDS011;26174;42.908;23.800;2023-02-28T15:27:22;22.33;;;10.07;;
40471;SDS011;26174;42.908;23.800;2023-02-28T15:29:58;27.50;;;12.50;;
40471;SDS011;26174;42.908;23.800;2023-02-28T15:32:27;20.75;;;10.70;;
40471;SDS011;26174;42.908;23.800;2023-02-28T15:34:57;25.45;;;13.20;;
40471;SDS011;26174;42.908;23.800;2023-02-28T15:39:58;30.77;;;14.57;;
40471;SDS011;26174;42.908;23.800;2023-02-28T15:42:31;30.98;;;16.70;;
40471;SDS011;26174;42.908;23.800;2023-02-28T15:44:56;21.80;;;12.18;;
40471;SDS011;26174;42.908;23.800;2023-02-28T15:47:23;22.20;;;11.45;;
40471;SDS011;26174;42.908;23.800;2023-02-28T15:52:19;23.58;;;11.93;;
40471;SDS011;26174;42.908;23.800;2023-02-28T15:54:59;21.52;;;11.00;;
40471;SDS011;26174;42.908;23.800;2023-02-28T15:57:34;31.13;;;14.65;;
40471;SDS011;26174;42.908;23.800;2023-02-28T16:00:03;21.60;;;12.07;;
40471;SDS011;26174;42.908;23.800;2023-02-28T16:02:33;33.38;;;16.55;;
40471;SDS011;26174;42.908;23.800;2023-02-28T16:07:31;25.10;;;12.37;;
40471;SDS011;26174;42.908;23.800;2023-02-28T16:09:58;24.77;;;12.80;;
40471;SDS011;26174;42.908;23.800;2023-02-28T16:12:28;22.80;;;12.77;;
40471;SDS011;26174;42.908;23.800;2023-02-28T16:14:55;23.40;;;12.07;;
40471;SDS011;26174;42.908;23.800;2023-02-28T16:17:24;23.70;;;13.45;;
40471;SDS011;26174;42.908;23.800;2023-02-28T16:19:51;21.55;;;11.63;;
40471;SDS011;26174;42.908;23.800;2023-02-28T16:22:17;24.30;;;12.68;;
40471;SDS011;26174;42.908;23.800;2023-02-28T16:24:43;27.35;;;14.00;;
40471;SDS011;26174;42.908;23.800;2023-02-28T16:30:16;35.53;;;17.65;;
40471;SDS011;26174;42.908;23.800;2023-02-28T16:32:44;32.40;;;15.15;;
40471;SDS011;26174;42.908;23.800;2023-02-28T16:35:10;39.45;;;17.92;;
40471;SDS011;26174;42.908;23.800;2023-02-28T16:37:36;41.20;;;19.65;;
40471;SDS011;26174;42.908;23.800;2023-02-28T16:40:02;36.80;;;16.80;;
40471;SDS011;26174;42.908;23.800;2023-02-28T16:42:28;22.58;;;11.82;;
40471;SDS011;26174;42.908;23.800;2023-02-28T16:44:54;18.80;;;10.20;;
40471;SDS011;26174;42.908;23.800;2023-02-28T16:47:20;20.48;;;11.50;;
40471;SDS011;26174;42.908;23.800;2023-02-28T16:49:46;24.40;;;13.82;;
40471;SDS011;26174;42.908;23.800;2023-02-28T16:52:12;22.23;;;12.95;;
40471;SDS011;26174;42.908;23.800;2023-02-28T16:54:38;19.52;;;11.65;;
40471;SDS011;26174;42.908;23.800;2023-02-28T16:57:05;25.45;;;12.52;;
40471;SDS011;26174;42.908;23.800;2023-02-28T16:59:31;28.42;;;14.15;;
40471;SDS011;26174;42.908;23.800;2023-02-28T17:01:57;26.70;;;14.32;;
40471;SDS011;26174;42.908;23.800;2023-02-28T17:04:26;25.33;;;12.75;;
40471;SDS011;26174;42.908;23.800;2023-02-28T17:06:55;33.83;;;15.50;;
40471;SDS011;26174;42.908;23.800;2023-02-28T17:09:21;42.03;;;18.58;;
40471;SDS011;26174;42.908;23.800;2023-02-28T17:11:47;40.88;;;18.98;;
40471;SDS011;26174;42.908;23.800;2023-02-28T17:14:14;26.02;;;12.50;;
40471;SDS011;26174;42.908;23.800;2023-02-28T17:16:40;31.02;;;13.57;;
40471;SDS011;26174;42.908;23.800;2023-02-28T17:19:09;43.40;;;16.77;;